Huvudsida
METAR-TAF:

METAR-TAF

Flygplatser :

Gran Canarias flygplats

Gran Canaria, Spanien

latitud: 27-56N, longitud: 015-23W, höjd: 23 m

Aktuellt väderrapport

Denna rapport gjordes för 39 minuter sedan, klockan 03:00 UTC
Vind 12 kt från nord
Temperatur 24°C
Fuktighet 78%
Tryck 1014 hPa
Sikt 10 km eller mer
Få moln på en höjd av 2000 ft

METAR: GCLP 230300Z 01012KT 9999 FEW020 24/20 Q1014 NOSIG

Tid: 04:39 (03:39 UTC)

Väderprognos

Denna rapport gjordes för 1 timme och 39 minuter sedan, klockan 02:00 UTC
Prognos gäller från 23 kl. 03 UTC till 24 kl. 03 UTC
Vind 14 kt från nord
Sikt 10 km eller mer
Inga moln under 1 500 m eller inga cumulonimbus

TAF: GCLP 230200Z 2303/2403 01014KT CAVOK TX30/2315Z TN23/2306Z

Aktuella väderrapporter och prognoser från 4000 flygplatser (METAR- och TAF-rapporter).

De tillgängliga stationerna syns som gula och röda prickar på kartan.

För musen över prickarna för att se namnen på stationerna.

Klicka sedan för att få väderrapporter och prognoser.

För att ändra kartan: Klicka på de gröna knapparna med ett svart kors på för att zooma in; den gröna knappen med ett streck på för att zooma ut; eller på de gröna pilarna för angränsande kartor.


METAR-TAF: